Time;durP1;ratioP1;P1;durP2;ratioP2;P2;SDS_P1;SDS_P2;PMS_P1;PMS_P2;Temp;Humidity;BMP_temperature;BMP_pressure;BME280_temperature;BME280_humidity;BME280_pressure;Samples;Min_cycle;Max_cycle;Signal;HPM_P1;HPM_P2
2022/06/24 00:02:03;;;;;;;4.15;2.08;;;20.70;76.10;;;;;;4971209;28;20042;-72
2022/06/24 00:04:30;;;;;;;3.55;1.73;;;20.70;77.00;;;;;;4969501;28;20060;-72
2022/06/24 00:06:57;;;;;;;3.72;1.85;;;20.60;77.60;;;;;;4976036;28;20101;-72
2022/06/24 00:09:26;;;;;;;4.10;1.60;;;20.60;78.30;;;;;;4973382;28;20054;-72
2022/06/24 00:12:11;;;;;;;2.40;1.80;;;20.50;78.90;;;;;;4970316;28;20387;-72
2022/06/24 00:14:38;;;;;;;3.42;1.73;;;20.50;80.30;;;;;;4972907;28;20557;-72
2022/06/24 00:17:06;;;;;;;4.28;2.03;;;20.40;81.00;;;;;;4975949;28;20320;-72
2022/06/24 00:19:36;;;;;;;3.13;1.88;;;20.30;81.80;;;;;;4975401;28;20046;-72
2022/06/24 00:22:05;;;;;;;4.75;1.95;;;20.30;82.80;;;;;;4974676;28;20099;-72
2022/06/24 00:24:32;;;;;;;3.90;1.80;;;20.20;84.70;;;;;;4973517;28;20047;-72
2022/06/24 00:26:59;;;;;;;4.10;1.83;;;20.20;86.30;;;;;;4973024;28;20073;-72
2022/06/24 00:29:27;;;;;;;3.63;1.83;;;20.10;86.20;;;;;;4972464;28;20049;-72
2022/06/24 00:32:32;;;;;;;2.15;1.73;;;20.10;86.90;;;;;;4963086;28;20035;-72
2022/06/24 00:35:10;;;;;;;7.45;2.28;;;20.00;88.10;;;;;;4964860;28;20050;-72
2022/06/24 00:37:37;;;;;;;3.55;1.90;;;19.90;89.40;;;;;;4989436;28;20049;-72
2022/06/24 00:40:09;;;;;;;2.80;2.08;;;19.90;90.60;;;;;;4973830;28;20178;-72
2022/06/24 00:42:40;;;;;;;4.55;2.15;;;19.90;91.10;;;;;;4974934;28;20042;-72
2022/06/24 00:45:22;;;;;;;2.33;1.85;;;19.80;91.50;;;;;;4988724;28;20473;-72
2022/06/24 00:47:48;;;;;;;3.35;1.80;;;19.80;92.60;;;;;;4984139;28;20042;-72
2022/06/24 00:50:28;;;;;;;2.50;2.15;;;19.70;93.40;;;;;;4970402;28;20410;-72
2022/06/24 00:52:56;;;;;;;3.40;2.00;;;19.70;94.00;;;;;;4989405;28;20081;-72
2022/06/24 00:55:41;;;;;;;4.55;2.13;;;19.60;95.00;;;;;;4964865;28;20118;-72
2022/06/24 00:58:17;;;;;;;2.70;2.28;;;19.60;95.50;;;;;;4972921;28;20053;-72
2022/06/24 01:00:49;;;;;;;3.63;2.22;;;19.50;95.90;;;;;;4974797;28;20335;-72
2022/06/24 01:03:15;;;;;;;4.65;2.08;;;19.50;96.40;;;;;;4978866;28;20046;-72
2022/06/24 01:05:42;;;;;;;3.00;2.00;;;19.40;96.60;;;;;;4963845;28;20046;-72
2022/06/24 01:08:10;;;;;;;2.97;1.83;;;19.40;96.30;;;;;;4971973;28;20470;-72
2022/06/24 01:10:37;;;;;;;2.33;1.85;;;19.40;96.50;;;;;;4973078;28;20050;-72
2022/06/24 01:13:10;;;;;;;4.55;2.28;;;19.40;96.70;;;;;;4956323;28;20081;-72
2022/06/24 01:15:37;;;;;;;5.65;2.08;;;19.40;95.20;;;;;;4961478;28;20049;-72
2022/06/24 01:18:03;;;;;;;3.38;1.88;;;19.40;94.70;;;;;;4978591;28;20417;-72
2022/06/24 01:20:29;;;;;;;3.63;2.05;;;19.40;93.70;;;;;;4979205;28;20049;-72
2022/06/24 01:22:55;;;;;;;3.78;1.77;;;19.40;93.80;;;;;;4977229;28;20049;-72
2022/06/24 01:25:20;;;;;;;4.32;1.90;;;19.40;92.90;;;;;;4978232;28;20158;-72
2022/06/24 01:27:46;;;;;;;6.18;1.80;;;19.40;93.10;;;;;;4974650;28;20038;-72
2022/06/24 01:30:12;;;;;;;3.05;1.88;;;19.40;92.70;;;;;;4977448;28;20049;-72
2022/06/24 01:32:38;;;;;;;3.10;1.73;;;19.30;93.30;;;;;;4977068;28;20026;-72
2022/06/24 01:35:04;;;;;;;3.15;1.92;;;19.30;93.60;;;;;;4976960;28;20406;-72
2022/06/24 01:37:30;;;;;;;4.05;2.20;;;19.20;94.30;;;;;;4977204;28;20054;-72
2022/06/24 01:39:55;;;;;;;3.72;2.13;;;19.20;94.90;;;;;;4979927;28;20096;-72
2022/06/24 01:42:21;;;;;;;3.70;2.30;;;19.20;95.30;;;;;;4982321;28;20057;-72
2022/06/24 01:44:47;;;;;;;3.42;2.22;;;19.10;96.10;;;;;;4962389;28;20046;-72
2022/06/24 01:47:12;;;;;;;3.80;2.00;;;19.10;96.70;;;;;;4964461;28;20045;-72
2022/06/24 01:49:38;;;;;;;3.72;1.92;;;19.10;97.10;;;;;;4962346;28;20058;-72
2022/06/24 01:52:04;;;;;;;2.35;1.90;;;19.10;97.20;;;;;;4975506;28;20418;-72
2022/06/24 01:54:30;;;;;;;7.35;2.20;;;19.00;96.80;;;;;;4976258;28;20061;-72
2022/06/24 01:56:55;;;;;;;1.98;1.73;;;19.10;96.40;;;;;;4974723;28;20050;-72
2022/06/24 01:59:21;;;;;;;3.25;1.90;;;19.10;96.00;;;;;;4975114;28;20034;-72
2022/06/24 02:01:47;;;;;;;3.33;1.67;;;19.10;96.50;;;;;;4977229;28;20125;-72
2022/06/24 02:04:14;;;;;;;2.40;1.67;;;19.10;96.80;;;;;;4976547;28;20038;-72
2022/06/24 02:06:40;;;;;;;3.17;1.83;;;19.00;97.20;;;;;;4964579;28;20042;-72
2022/06/24 02:09:06;;;;;;;4.18;1.90;;;19.00;97.00;;;;;;4976162;28;20378;-72
2022/06/24 02:14:18;;;;;;;2.17;1.92;;;19.10;96.60;;;;;;4974220;28;20141;-72
2022/06/24 02:16:45;;;;;;;3.53;1.95;;;19.10;97.20;;;;;;4975273;28;20089;-72
2022/06/24 02:19:10;;;;;;;3.95;1.85;;;19.10;97.30;;;;;;4972711;28;20472;-72
2022/06/24 02:21:36;;;;;;;2.90;1.80;;;19.10;97.30;;;;;;4959947;28;20038;-72
2022/06/24 02:24:03;;;;;;;3.30;1.92;;;19.20;96.20;;;;;;4977432;28;20046;-72
2022/06/24 02:26:28;;;;;;;3.13;2.00;;;19.30;95.20;;;;;;4975969;28;20081;-72
2022/06/24 02:28:55;;;;;;;2.70;1.95;;;19.40;94.80;;;;;;4975407;28;20076;-72
2022/06/24 02:31:21;;;;;;;4.22;2.05;;;19.50;94.40;;;;;;4990008;28;20557;-72
2022/06/24 02:33:47;;;;;;;4.03;1.90;;;19.50;94.50;;;;;;4977417;28;20126;-72
2022/06/24 02:36:13;;;;;;;2.42;1.77;;;19.50;94.30;;;;;;4977134;28;20446;-72
2022/06/24 02:38:39;;;;;;;2.97;1.90;;;19.60;94.40;;;;;;4974834;28;20053;-72
2022/06/24 02:41:04;;;;;;;4.10;1.80;;;19.60;95.10;;;;;;4982779;28;20077;-72
2022/06/24 02:43:37;;;;;;;2.40;1.60;;;19.60;95.30;;;;;;4974157;28;20124;-72
2022/06/24 02:46:06;;;;;;;3.85;1.95;;;19.60;94.90;;;;;;4982112;28;20057;-72
2022/06/24 02:48:35;;;;;;;2.88;1.60;;;19.60;94.40;;;;;;4975903;28;20053;-72
2022/06/24 02:51:03;;;;;;;2.05;1.63;;;19.60;94.30;;;;;;4989288;28;20049;-72
2022/06/24 02:53:30;;;;;;;2.47;1.80;;;19.60;93.70;;;;;;4970167;28;20042;-72
2022/06/24 02:55:58;;;;;;;3.45;1.70;;;19.70;93.50;;;;;;4974838;28;20085;-72
2022/06/24 02:58:25;;;;;;;2.20;1.90;;;19.70;93.30;;;;;;4974830;28;20053;-72
2022/06/24 03:00:51;;;;;;;2.88;2.00;;;19.80;92.30;;;;;;4961150;28;20053;-72
2022/06/24 03:03:19;;;;;;;4.30;1.50;;;19.80;91.90;;;;;;4975394;28;20486;-72
2022/06/24 03:05:46;;;;;;;2.40;1.77;;;19.90;91.90;;;;;;4975881;28;20481;-72
2022/06/24 03:08:14;;;;;;;2.50;1.70;;;19.90;91.80;;;;;;4963170;28;20076;-72
2022/06/24 03:10:40;;;;;;;3.95;1.88;;;19.90;91.90;;;;;;4976015;28;20512;-72
2022/06/24 03:13:06;;;;;;;3.58;1.70;;;19.90;91.30;;;;;;4975284;28;20041;-72
2022/06/24 03:15:32;;;;;;;3.47;1.75;;;19.90;91.80;;;;;;4979611;28;20038;-72
2022/06/24 03:17:59;;;;;;;3.75;1.80;;;19.90;91.70;;;;;;4976547;28;20050;-72
2022/06/24 03:20:25;;;;;;;2.88;1.73;;;19.90;91.60;;;;;;4975410;28;20065;-72
2022/06/24 03:22:51;;;;;;;2.65;2.05;;;19.90;91.00;;;;;;4967446;28;20116;-72
2022/06/24 03:25:17;;;;;;;5.20;2.10;;;19.90;90.70;;;;;;4975833;28;20052;-72
2022/06/24 03:27:43;;;;;;;2.55;1.77;;;19.80;90.80;;;;;;4973140;28;20035;-72
2022/06/24 03:30:11;;;;;;;4.68;2.20;;;19.80;91.30;;;;;;4972977;28;20047;-72
2022/06/24 03:32:36;;;;;;;3.80;1.80;;;19.80;91.30;;;;;;4967037;28;20410;-72
2022/06/24 03:35:03;;;;;;;3.88;1.80;;;19.80;91.20;;;;;;4973822;28;20057;-72
2022/06/24 03:37:29;;;;;;;3.00;2.08;;;19.80;91.30;;;;;;4956823;28;20060;-72
2022/06/24 03:39:56;;;;;;;3.75;1.90;;;19.80;91.20;;;;;;4958694;28;20104;-72
2022/06/24 03:42:21;;;;;;;3.47;1.63;;;19.80;91.40;;;;;;4976703;28;20042;-72
2022/06/24 03:44:47;;;;;;;3.70;2.00;;;19.80;91.80;;;;;;4973909;28;20078;-72
2022/06/24 03:47:13;;;;;;;3.47;2.05;;;19.80;91.60;;;;;;4973451;28;20469;-72
2022/06/24 03:49:39;;;;;;;4.57;2.03;;;19.90;91.60;;;;;;4973977;28;20080;-72
2022/06/24 03:52:05;;;;;;;6.45;2.03;;;19.80;91.80;;;;;;4973379;28;20049;-72
2022/06/24 03:54:31;;;;;;;4.20;1.95;;;19.80;91.50;;;;;;4973907;28;20046;-72
2022/06/24 03:56:56;;;;;;;4.75;1.90;;;19.80;91.70;;;;;;4972764;28;20773;-72
2022/06/24 03:59:22;;;;;;;5.03;2.15;;;19.80;92.10;;;;;;4973530;28;20050;-72
2022/06/24 04:01:48;;;;;;;4.30;2.08;;;19.80;92.30;;;;;;4973538;28;20088;-72
2022/06/24 04:04:13;;;;;;;2.53;1.98;;;19.80;92.90;;;;;;4962140;28;20149;-72
2022/06/24 04:06:39;;;;;;;6.22;2.38;;;19.80;93.30;;;;;;4973392;28;20470;-72
2022/06/24 04:09:05;;;;;;;2.88;2.05;;;19.80;93.50;;;;;;4973689;28;20185;-72
2022/06/24 04:11:31;;;;;;;3.42;2.08;;;19.80;93.50;;;;;;4957543;28;20039;-72
2022/06/24 04:13:58;;;;;;;3.13;2.22;;;19.90;93.50;;;;;;4980599;28;20042;-72
2022/06/24 04:16:24;;;;;;;3.20;1.88;;;19.80;93.80;;;;;;4981122;28;20126;-72
2022/06/24 04:18:50;;;;;;;2.20;1.90;;;19.90;94.20;;;;;;4973392;28;20133;-72
2022/06/24 04:21:17;;;;;;;4.53;2.53;;;19.90;94.30;;;;;;4973392;28;20429;-72
2022/06/24 04:23:45;;;;;;;3.55;2.38;;;20.10;94.30;;;;;;4957237;28;20081;-72
2022/06/24 04:26:11;;;;;;;3.40;2.67;;;20.20;94.90;;;;;;4973092;28;20054;-72
2022/06/24 04:28:38;;;;;;;4.22;2.80;;;20.20;95.40;;;;;;4971645;28;20077;-72
2022/06/24 04:31:04;;;;;;;7.05;4.80;;;20.30;95.60;;;;;;4986865;28;20054;-72
2022/06/24 04:33:30;;;;;;;8.32;6.90;;;20.40;96.80;;;;;;4970437;28;20053;-71
2022/06/24 04:35:55;;;;;;;10.82;9.75;;;20.40;99.10;;;;;;4974749;28;20030;-71
2022/06/24 04:38:21;;;;;;;12.65;11.35;;;20.60;99.90;;;;;;4971265;28;20057;-72
2022/06/24 04:40:47;;;;;;;13.10;9.05;;;20.60;99.90;;;;;;4974484;28;20051;-72
2022/06/24 04:43:12;;;;;;;7.47;6.03;;;20.70;99.90;;;;;;4972830;28;20176;-71
2022/06/24 04:45:38;;;;;;;7.80;5.28;;;20.70;99.90;;;;;;4974140;28;20181;-71
2022/06/24 04:48:05;;;;;;;7.03;4.60;;;20.80;99.90;;;;;;4972997;28;20120;-71
2022/06/24 04:50:31;;;;;;;5.47;3.97;;;20.80;99.90;;;;;;4976182;28;20038;-72
2022/06/24 04:52:56;;;;;;;6.30;3.65;;;20.80;99.90;;;;;;4977678;28;20042;-72
2022/06/24 04:55:22;;;;;;;4.75;3.17;;;20.90;99.90;;;;;;4977923;28;20046;-72
2022/06/24 04:57:48;;;;;;;4.53;3.00;;;20.90;99.90;;;;;;4976994;28;20044;-71
2022/06/24 05:00:14;;;;;;;6.43;3.08;;;21.00;99.90;;;;;;4991140;28;20093;-71
2022/06/24 05:02:41;;;;;;;5.55;2.85;;;21.00;99.90;;;;;;4976564;28;20120;-72
2022/06/24 05:05:08;;;;;;;4.47;2.78;;;21.10;99.90;;;;;;4976662;28;20065;-72
2022/06/24 05:07:34;;;;;;;3.92;2.55;;;21.10;99.90;;;;;;4982811;28;20062;-72
2022/06/24 05:10:00;;;;;;;4.90;2.58;;;21.30;99.90;;;;;;4976103;28;20124;-72
2022/06/24 05:12:26;;;;;;;5.72;2.97;;;21.50;99.90;;;;;;4976260;28;20441;-72
2022/06/24 05:14:52;;;;;;;5.38;2.58;;;21.50;99.90;;;;;;4965491;28;20181;-73
2022/06/24 05:17:18;;;;;;;4.70;2.65;;;21.40;99.90;;;;;;4992712;28;20058;-72
2022/06/24 05:19:43;;;;;;;4.60;2.72;;;21.30;99.90;;;;;;4961055;28;20046;-72
2022/06/24 05:22:09;;;;;;;4.90;2.53;;;21.20;99.90;;;;;;4994274;28;20045;-72
2022/06/24 05:24:35;;;;;;;3.85;2.65;;;21.10;99.90;;;;;;4976360;28;20114;-72
2022/06/24 05:27:00;;;;;;;4.18;2.80;;;21.10;99.90;;;;;;4975684;28;20078;-72
2022/06/24 05:29:26;;;;;;;5.40;3.08;;;21.00;99.90;;;;;;4967499;28;20125;-72
2022/06/24 05:31:52;;;;;;;4.25;2.88;;;21.00;99.90;;;;;;4976317;28;20042;-72
2022/06/24 05:34:18;;;;;;;3.35;2.90;;;20.90;99.90;;;;;;4959343;28;20554;-72
2022/06/24 05:36:44;;;;;;;3.85;2.63;;;20.90;99.90;;;;;;4975956;28;20086;-72
2022/06/24 05:39:09;;;;;;;4.15;2.75;;;20.90;99.90;;;;;;4984801;28;20054;-72
2022/06/24 05:41:39;;;;;;;3.38;2.58;;;20.80;99.90;;;;;;4976178;28;20062;-72
2022/06/24 05:44:05;;;;;;;4.95;2.92;;;20.80;99.90;;;;;;4986842;28;20050;-72
2022/06/24 05:46:30;;;;;;;3.72;2.75;;;20.80;99.90;;;;;;4975219;28;20398;-72
2022/06/24 05:48:57;;;;;;;3.53;3.13;;;20.80;99.90;;;;;;4965577;28;20172;-72
2022/06/24 05:51:23;;;;;;;3.90;2.97;;;20.80;99.90;;;;;;4976198;28;20044;-72
2022/06/24 05:56:32;;;;;;;5.68;2.40;;;20.80;99.90;;;;;;4974943;28;20057;-72
2022/06/24 05:58:59;;;;;;;6.38;3.28;;;20.80;99.90;;;;;;4958141;28;20050;-73
2022/06/24 06:01:26;;;;;;;5.60;2.78;;;20.80;99.90;;;;;;4975369;28;20042;-73
2022/06/24 06:03:52;;;;;;;3.42;2.40;;;20.90;99.90;;;;;;4974181;28;20046;-73
2022/06/24 06:06:21;;;;;;;4.88;2.78;;;20.90;99.90;;;;;;4995451;28;20092;-73
2022/06/24 06:08:47;;;;;;;3.17;2.45;;;21.00;99.90;;;;;;4976504;28;20038;-73
2022/06/24 06:11:18;;;;;;;2.60;2.35;;;21.10;99.90;;;;;;4993495;28;20050;-73
2022/06/24 06:13:46;;;;;;;3.80;2.33;;;21.10;99.90;;;;;;4974573;28;20046;-73
2022/06/24 06:16:13;;;;;;;4.00;2.25;;;21.20;99.90;;;;;;4974282;28;20137;-73
2022/06/24 06:18:39;;;;;;;2.35;2.08;;;21.20;99.90;;;;;;4974414;28;20081;-73
2022/06/24 06:21:07;;;;;;;3.05;2.13;;;21.30;99.90;;;;;;4958743;28;20054;-73
2022/06/24 06:23:34;;;;;;;3.15;2.50;;;21.30;99.90;;;;;;4974608;28;20038;-73
2022/06/24 06:26:01;;;;;;;3.50;2.30;;;21.30;99.90;;;;;;4976436;28;20098;-73
2022/06/24 06:28:27;;;;;;;3.25;2.40;;;21.30;99.90;;;;;;4980330;28;20034;-72
2022/06/24 06:30:53;;;;;;;4.03;2.60;;;21.40;99.90;;;;;;4976070;28;20133;-73
2022/06/24 06:33:19;;;;;;;3.15;2.25;;;21.40;99.90;;;;;;4974863;28;20046;-73
2022/06/24 06:35:45;;;;;;;3.50;2.38;;;21.40;99.90;;;;;;4975234;28;20134;-73
2022/06/24 06:38:11;;;;;;;3.38;2.70;;;21.40;99.90;;;;;;4992329;28;20253;-73
2022/06/24 06:40:38;;;;;;;5.38;2.80;;;21.30;99.90;;;;;;4975076;28;20109;-72
2022/06/24 06:43:05;;;;;;;3.85;2.65;;;21.30;99.90;;;;;;4957923;28;20058;-72
2022/06/24 06:45:32;;;;;;;4.53;2.83;;;21.30;99.90;;;;;;4979020;28;20058;-72
2022/06/24 06:47:58;;;;;;;3.63;2.70;;;21.20;99.90;;;;;;4974383;28;20457;-72
2022/06/24 06:50:24;;;;;;;3.90;2.38;;;21.20;99.90;;;;;;4974925;28;20050;-72
2022/06/24 06:52:50;;;;;;;3.70;3.00;;;21.10;99.90;;;;;;4977266;28;20050;-72
2022/06/24 06:55:15;;;;;;;3.78;2.97;;;21.10;99.90;;;;;;4972279;28;20127;-72
2022/06/24 06:57:41;;;;;;;4.25;2.60;;;21.10;99.90;;;;;;4973790;28;20066;-72
2022/06/24 07:00:09;;;;;;;3.55;2.60;;;21.00;99.90;;;;;;4976872;28;20112;-72
2022/06/24 07:02:38;;;;;;;5.00;3.00;;;20.90;99.90;;;;;;4965185;28;20566;-72
2022/06/24 07:05:05;;;;;;;4.68;2.88;;;21.00;99.90;;;;;;4974773;28;20054;-72
2022/06/24 07:07:31;;;;;;;5.50;3.05;;;20.90;99.90;;;;;;4975853;28;20129;-72
2022/06/24 07:09:57;;;;;;;4.90;3.33;;;20.90;99.90;;;;;;4974603;28;20050;-72
2022/06/24 07:12:24;;;;;;;5.82;3.10;;;20.90;99.90;;;;;;4975376;28;20134;-71
2022/06/24 07:14:50;;;;;;;3.17;2.88;;;20.90;99.90;;;;;;4978176;28;20058;-73
2022/06/24 07:17:16;;;;;;;4.65;2.97;;;20.90;99.90;;;;;;4973913;28;20054;-71
2022/06/24 07:19:42;;;;;;;4.60;2.88;;;20.90;99.90;;;;;;4973911;28;20502;-69
2022/06/24 07:22:08;;;;;;;4.35;3.17;;;20.90;99.90;;;;;;4991656;28;20040;-69
2022/06/24 07:24:34;;;;;;;4.80;3.78;;;20.80;99.90;;;;;;4975780;28;20493;-69
2022/06/24 07:27:09;;;;;;;6.65;3.67;;;20.90;99.90;;;;;;4973515;28;20062;-69
2022/06/24 07:29:35;;;;;;;5.97;4.00;;;20.90;99.90;;;;;;4986488;28;20050;-69
2022/06/24 07:32:02;;;;;;;5.30;3.88;;;20.90;99.90;;;;;;4991198;28;20065;-69
2022/06/24 07:34:30;;;;;;;5.75;4.05;;;20.80;99.90;;;;;;4973178;28;20539;-69
2022/06/24 07:36:57;;;;;;;6.47;4.35;;;20.80;99.90;;;;;;4991472;28;20074;-70
2022/06/24 07:39:23;;;;;;;6.25;4.40;;;20.80;99.90;;;;;;4960155;28;20137;-72
2022/06/24 07:41:49;;;;;;;5.03;4.40;;;20.70;99.90;;;;;;4972651;28;20137;-72
2022/06/24 07:44:14;;;;;;;5.47;4.80;;;20.70;99.90;;;;;;4978747;28;20513;-72
2022/06/24 07:46:40;;;;;;;5.43;4.93;;;20.60;99.90;;;;;;4988935;28;20050;-72
2022/06/24 07:49:06;;;;;;;6.13;4.57;;;20.60;99.90;;;;;;4973273;28;20109;-72
2022/06/24 07:51:32;;;;;;;7.00;4.93;;;20.50;99.90;;;;;;4973583;28;20050;-72
2022/06/24 07:53:57;;;;;;;5.60;4.43;;;20.60;99.90;;;;;;4973590;28;20060;-72
2022/06/24 07:59:07;;;;;;;8.05;5.30;;;20.50;99.90;;;;;;4973194;28;20050;-73
2022/06/24 08:01:34;;;;;;;6.35;4.97;;;20.40;99.90;;;;;;4958537;28;20224;-72
2022/06/24 08:04:00;;;;;;;5.57;4.85;;;20.50;99.90;;;;;;4977045;28;20050;-72
2022/06/24 08:06:26;;;;;;;6.07;5.32;;;20.50;99.90;;;;;;4973172;28;20054;-72
2022/06/24 08:08:52;;;;;;;6.30;5.53;;;20.50;99.90;;;;;;4982697;28;20183;-72
2022/06/24 08:11:18;;;;;;;6.60;4.82;;;20.50;99.90;;;;;;4972812;28;20050;-72
2022/06/24 08:13:43;;;;;;;6.40;5.80;;;20.40;99.90;;;;;;4972555;28;20072;-72
2022/06/24 08:16:09;;;;;;;8.93;6.15;;;20.50;99.90;;;;;;4973199;28;20129;-72
2022/06/24 08:18:35;;;;;;;7.60;6.15;;;20.40;99.90;;;;;;4972832;28;20370;-72
2022/06/24 08:21:01;;;;;;;7.15;5.93;;;20.40;99.90;;;;;;4973471;28;20373;-71
2022/06/24 08:23:26;;;;;;;9.80;6.22;;;20.40;99.90;;;;;;4973180;28;20050;-71
2022/06/24 08:25:52;;;;;;;7.47;5.85;;;20.50;99.90;;;;;;4972801;28;20153;-71
2022/06/24 08:28:18;;;;;;;7.90;6.20;;;20.50;99.90;;;;;;4956440;28;20089;-71
2022/06/24 08:30:44;;;;;;;9.95;7.68;;;20.50;99.90;;;;;;4961549;28;20085;-70
2022/06/24 08:33:10;;;;;;;7.78;6.93;;;20.50;99.90;;;;;;4990699;28;20453;-70
2022/06/24 08:35:36;;;;;;;8.80;7.25;;;20.50;99.90;;;;;;4972390;28;20042;-70
2022/06/24 08:38:02;;;;;;;8.93;6.30;;;20.50;99.90;;;;;;4991252;28;20067;-70
2022/06/24 08:40:29;;;;;;;8.40;5.57;;;20.50;99.90;;;;;;4974196;28;20058;-70
2022/06/24 08:42:56;;;;;;;7.70;6.68;;;20.60;99.90;;;;;;4990612;28;20042;-70
2022/06/24 08:45:23;;;;;;;6.95;6.03;;;20.60;99.90;;;;;;4957077;28;20050;-70
2022/06/24 08:47:49;;;;;;;6.53;5.93;;;20.50;99.90;;;;;;4973627;28;20054;-70
2022/06/24 08:50:16;;;;;;;9.15;8.18;;;20.60;99.90;;;;;;4973294;28;20061;-70
2022/06/24 08:52:47;;;;;;;7.30;6.53;;;20.60;99.90;;;;;;4974037;28;20367;-70
2022/06/24 08:55:16;;;;;;;9.27;7.45;;;20.60;99.90;;;;;;4974393;28;20328;-70
2022/06/24 08:57:43;;;;;;;7.78;6.70;;;20.60;99.90;;;;;;4973068;28;20053;-70
2022/06/24 09:00:09;;;;;;;10.93;6.32;;;20.60;99.90;;;;;;4989296;28;20041;-70
2022/06/24 09:02:35;;;;;;;7.13;6.00;;;20.60;99.90;;;;;;4973132;28;20417;-70
2022/06/24 09:05:11;;;;;;;6.47;5.88;;;20.60;99.90;;;;;;4974160;28;20058;-70
2022/06/24 09:07:37;;;;;;;7.22;6.35;;;20.60;99.90;;;;;;4973987;28;20385;-70
2022/06/24 09:10:12;;;;;;;7.25;6.53;;;20.60;99.90;;;;;;4982258;28;20386;-71
2022/06/24 09:12:46;;;;;;;7.53;6.57;;;20.60;99.90;;;;;;4991644;28;20050;-71
2022/06/24 09:15:14;;;;;;;8.15;6.55;;;20.50;99.90;;;;;;4973325;28;20144;-71
2022/06/24 09:17:41;;;;;;;11.27;7.88;;;20.40;99.90;;;;;;4974288;28;20061;-70
2022/06/24 09:20:22;;;;;;;11.82;7.35;;;20.40;99.90;;;;;;4973361;28;20140;-70
2022/06/24 09:22:48;;;;;;;8.43;6.10;;;20.30;99.90;;;;;;4972924;28;20054;-70
2022/06/24 09:25:17;;;;;;;7.50;5.85;;;20.20;99.90;;;;;;4991540;28;20117;-70
2022/06/24 09:27:45;;;;;;;7.07;5.28;;;20.10;99.90;;;;;;4982581;28;20065;-70
2022/06/24 09:30:12;;;;;;;9.52;5.18;;;19.90;99.90;;;;;;4991095;28;20042;-70
2022/06/24 09:32:52;;;;;;;7.78;5.10;;;19.80;99.90;;;;;;4991029;28;20031;-70
2022/06/24 09:35:19;;;;;;;17.13;5.55;;;19.70;99.90;;;;;;4971086;28;20058;-67
2022/06/24 09:37:49;;;;;;;9.13;4.90;;;19.50;99.90;;;;;;4994396;28;20390;-68
2022/06/24 09:40:23;;;;;;;8.57;4.53;;;19.20;99.90;;;;;;4978160;28;20478;-69
2022/06/24 09:42:53;;;;;;;11.05;5.40;;;19.00;99.90;;;;;;4993541;28;20074;-69
2022/06/24 09:45:19;;;;;;;5.70;4.22;;;18.80;99.90;;;;;;4976797;28;20049;-69
2022/06/24 09:47:50;;;;;;;8.27;4.20;;;18.70;99.90;;;;;;4975316;28;20108;-69
2022/06/24 09:50:20;;;;;;;4.95;3.53;;;18.60;99.90;;;;;;4976737;28;20056;-69
2022/06/24 09:52:46;;;;;;;5.05;2.85;;;18.50;99.90;;;;;;4994318;28;20494;-69
2022/06/24 09:55:12;;;;;;;6.45;3.72;;;18.40;99.90;;;;;;4983707;28;20386;-70
2022/06/24 09:57:39;;;;;;;4.50;3.20;;;18.30;99.90;;;;;;4992732;28;20049;-70
2022/06/24 10:02:54;;;;;;;5.40;3.25;;;18.20;99.90;;;;;;4971417;28;20050;-70
2022/06/24 10:05:20;;;;;;;5.93;2.90;;;18.10;99.90;;;;;;4994316;28;20500;-70
2022/06/24 10:07:48;;;;;;;4.13;2.92;;;18.10;99.90;;;;;;4975610;28;20065;-69
2022/06/24 10:10:16;;;;;;;6.35;2.85;;;18.00;99.90;;;;;;4973733;28;20042;-69
2022/06/24 10:12:48;;;;;;;5.45;2.47;;;18.00;99.90;;;;;;4975337;28;20057;-69
2022/06/24 10:15:16;;;;;;;7.97;3.97;;;17.90;99.90;;;;;;4972345;28;20060;-70
2022/06/24 10:17:44;;;;;;;8.20;3.13;;;17.90;99.90;;;;;;4992652;28;20081;-69
2022/06/24 10:20:13;;;;;;;6.60;3.28;;;17.90;99.90;;;;;;4975945;28;20117;-69
2022/06/24 10:22:49;;;;;;;9.02;3.70;;;17.90;99.90;;;;;;4976734;28;20054;-69
2022/06/24 10:25:42;;;;;;;4.95;3.50;;;18.00;99.90;;;;;;4974861;28;20046;-69
2022/06/24 10:28:08;;;;;;;7.78;3.42;;;18.00;99.90;;;;;;4972156;28;20046;-69
2022/06/24 10:30:40;;;;;;;9.27;4.05;;;18.00;99.90;;;;;;4977665;28;20054;-70
2022/06/24 10:33:20;;;;;;;10.77;5.57;;;18.00;99.90;;;;;;4975671;28;20062;-70
2022/06/24 10:36:00;;;;;;;7.95;5.15;;;18.10;99.90;;;;;;4976030;28;20129;-70
2022/06/24 10:38:34;;;;;;;6.38;5.07;;;18.20;99.90;;;;;;4975571;28;20050;-70
2022/06/24 10:41:02;;;;;;;6.07;5.32;;;18.30;99.90;;;;;;4993804;28;20446;-70
2022/06/24 10:43:42;;;;;;;8.80;5.30;;;18.40;99.90;;;;;;4974642;28;20082;-70
2022/06/24 10:46:11;;;;;;;6.30;4.55;;;18.40;99.90;;;;;;4992866;28;20070;-70
2022/06/24 10:48:49;;;;;;;9.35;5.40;;;18.60;99.90;;;;;;4963790;28;20054;-69
2022/06/24 10:51:19;;;;;;;7.13;5.05;;;18.60;99.90;;;;;;4993577;28;20093;-69
2022/06/24 10:54:06;;;;;;;6.53;4.25;;;18.60;99.90;;;;;;4990270;28;20046;-69
2022/06/24 10:56:49;;;;;;;5.25;3.70;;;18.70;99.90;;;;;;4992585;28;20057;-69
2022/06/24 10:59:19;;;;;;;8.13;5.03;;;18.80;99.90;;;;;;4975203;28;20310;-69
2022/06/24 11:01:49;;;;;;;5.32;4.80;;;18.80;99.90;;;;;;4992573;28;20475;-69
2022/06/24 11:04:28;;;;;;;7.25;4.80;;;18.90;99.90;;;;;;4975005;28;20129;-69
2022/06/24 11:07:11;;;;;;;6.40;4.40;;;18.90;99.90;;;;;;4975280;28;20054;-69
2022/06/24 11:09:38;;;;;;;4.85;4.25;;;18.90;99.90;;;;;;4992860;28;20034;-69
2022/06/24 11:12:28;;;;;;;7.95;4.65;;;19.00;99.90;;;;;;4992787;28;20050;-69
2022/06/24 11:14:54;;;;;;;5.78;4.10;;;19.00;99.90;;;;;;4975161;28;20058;-69
2022/06/24 11:17:27;;;;;;;9.02;4.60;;;19.10;99.90;;;;;;4993445;28;20107;-69
2022/06/24 11:19:53;;;;;;;6.38;4.43;;;19.10;99.90;;;;;;4965640;28;20162;-69
2022/06/24 11:22:19;;;;;;;6.82;5.75;;;19.20;99.90;;;;;;4992893;28;20042;-69
2022/06/24 11:24:48;;;;;;;4.60;4.10;;;19.20;99.90;;;;;;4993357;28;20493;-69
2022/06/24 11:27:14;;;;;;;4.70;4.15;;;19.30;99.90;;;;;;4988857;28;20043;-69
2022/06/24 11:29:54;;;;;;;5.57;4.30;;;19.40;99.90;;;;;;4992037;28;20030;-69
2022/06/24 11:32:20;;;;;;;4.70;3.63;;;19.60;99.90;;;;;;4975013;28;20053;-69
2022/06/24 11:34:48;;;;;;;5.00;4.60;;;19.70;99.90;;;;;;4974628;28;20096;-69
2022/06/24 11:37:23;;;;;;;6.68;4.75;;;19.80;99.90;;;;;;4991585;28;20069;-70
2022/06/24 11:39:53;;;;;;;5.32;4.82;;;20.00;99.90;;;;;;4992103;28;20053;-70
2022/06/24 11:42:19;;;;;;;5.30;4.90;;;20.30;99.90;;;;;;4991208;28;20046;-70
2022/06/24 11:44:45;;;;;;;6.80;5.22;;;20.50;99.90;;;;;;4992172;28;20050;-70
2022/06/24 11:47:11;;;;;;;5.93;5.15;;;20.60;99.90;;;;;;4973436;28;20050;-70
2022/06/24 11:49:39;;;;;;;4.97;4.20;;;20.90;99.90;;;;;;4973803;28;20054;-70
2022/06/24 11:52:05;;;;;;;6.55;5.95;;;21.00;99.90;;;;;;4991758;28;20039;-70
2022/06/24 11:54:31;;;;;;;9.13;6.80;;;21.00;99.90;;;;;;4974681;28;20362;-70
2022/06/24 11:56:58;;;;;;;6.57;5.95;;;21.20;99.90;;;;;;4990990;28;20122;-70
2022/06/24 11:59:26;;;;;;;8.80;7.93;;;21.40;99.90;;;;;;4983670;28;20050;-70
2022/06/24 12:01:53;;;;;;;9.25;7.22;;;21.40;99.90;;;;;;4990834;28;20042;-70
2022/06/24 12:04:23;;;;;;;8.05;7.25;;;21.60;99.90;;;;;;4973805;28;20702;-70
2022/06/24 12:06:49;;;;;;;7.60;6.90;;;21.70;99.90;;;;;;4992446;28;20069;-70
2022/06/24 12:09:16;;;;;;;9.80;8.90;;;21.70;99.90;;;;;;4983204;28;20077;-70
2022/06/24 12:11:44;;;;;;;9.35;8.52;;;21.80;99.90;;;;;;4990524;28;20077;-70
2022/06/24 12:14:11;;;;;;;10.23;9.23;;;21.90;99.90;;;;;;4973149;28;20046;-70
2022/06/24 12:16:59;;;;;;;9.70;8.80;;;21.90;99.90;;;;;;4973582;28;20120;-71
2022/06/24 12:19:31;;;;;;;10.00;9.00;;;22.00;99.90;;;;;;4972303;28;20394;-70
2022/06/24 12:22:11;;;;;;;9.65;8.75;;;22.10;99.90;;;;;;4973304;28;20085;-70
2022/06/24 12:24:38;;;;;;;11.40;10.35;;;22.00;99.90;;;;;;4989413;28;20160;-70
2022/06/24 12:27:05;;;;;;;9.65;8.65;;;21.90;99.90;;;;;;4972929;28;20061;-68
2022/06/24 12:29:36;;;;;;;10.20;8.88;;;21.90;99.90;;;;;;4991878;28;20437;-68
2022/06/24 12:32:04;;;;;;;10.10;9.10;;;21.90;99.90;;;;;;4989153;28;20050;-68
2022/06/24 12:34:35;;;;;;;9.70;8.88;;;22.00;99.90;;;;;;4992269;28;20041;-68
2022/06/24 12:37:08;;;;;;;12.50;11.50;;;22.00;99.90;;;;;;4992003;28;20054;-68
2022/06/24 12:39:36;;;;;;;10.55;9.43;;;22.00;99.90;;;;;;4973972;28;20050;-70
2022/06/24 12:42:03;;;;;;;12.65;11.57;;;22.10;99.90;;;;;;4980607;28;20047;-68
2022/06/24 12:44:43;;;;;;;10.45;9.55;;;22.20;99.90;;;;;;4991317;28;20039;-68
2022/06/24 12:53:05;;;;;;;14.80;13.52;;;22.70;99.90;;;;;;4990838;28;20105;-68
2022/06/24 12:55:32;;;;;;;14.85;13.50;;;22.90;99.90;;;;;;4988982;28;20505;-68
2022/06/24 12:57:58;;;;;;;15.38;13.88;;;23.00;99.90;;;;;;4991534;28;20691;-68
2022/06/24 13:00:24;;;;;;;14.82;13.48;;;23.20;99.90;;;;;;4991081;28;20034;-68
2022/06/24 13:02:52;;;;;;;13.90;12.63;;;23.30;99.90;;;;;;4991122;28;20065;-68
2022/06/24 13:05:19;;;;;;;12.68;11.45;;;23.30;99.90;;;;;;4972669;28;20054;-67
2022/06/24 13:07:46;;;;;;;12.85;11.65;;;23.30;99.90;;;;;;4992885;28;20429;-68